sensor_id;sensor_type;location;lat;lon;timestamp;P1;durP1;ratioP1;P2;durP2;ratioP2
21424;SDS011;10873;51.132;16.848;2023-04-01T00:02:11;2.42;;;1.85;;
21424;SDS011;10873;51.132;16.848;2023-04-01T00:04:37;3.25;;;2.17;;
21424;SDS011;10873;51.132;16.848;2023-04-01T00:07:04;2.97;;;1.90;;
21424;SDS011;10873;51.132;16.848;2023-04-01T00:09:30;4.57;;;2.30;;
21424;SDS011;10873;51.132;16.848;2023-04-01T00:11:56;4.43;;;2.28;;
21424;SDS011;10873;51.132;16.848;2023-04-01T00:14:23;3.33;;;2.40;;
21424;SDS011;10873;51.132;16.848;2023-04-01T00:16:49;3.30;;;2.17;;
21424;SDS011;10873;51.132;16.848;2023-04-01T00:19:15;2.90;;;2.25;;
21424;SDS011;10873;51.132;16.848;2023-04-01T00:21:41;2.75;;;2.13;;
21424;SDS011;10873;51.132;16.848;2023-04-01T00:24:08;4.60;;;2.10;;
21424;SDS011;10873;51.132;16.848;2023-04-01T00:26:35;5.88;;;2.72;;
21424;SDS011;10873;51.132;16.848;2023-04-01T00:29:02;5.32;;;2.80;;
21424;SDS011;10873;51.132;16.848;2023-04-01T00:31:28;3.25;;;2.40;;
21424;SDS011;10873;51.132;16.848;2023-04-01T00:33:55;3.72;;;2.42;;
21424;SDS011;10873;51.132;16.848;2023-04-01T00:36:21;4.75;;;2.67;;
21424;SDS011;10873;51.132;16.848;2023-04-01T00:38:48;4.30;;;2.70;;
21424;SDS011;10873;51.132;16.848;2023-04-01T00:41:17;4.15;;;2.47;;
21424;SDS011;10873;51.132;16.848;2023-04-01T00:43:45;3.40;;;2.40;;
21424;SDS011;10873;51.132;16.848;2023-04-01T00:46:13;4.10;;;2.55;;
21424;SDS011;10873;51.132;16.848;2023-04-01T00:48:41;3.42;;;2.58;;
21424;SDS011;10873;51.132;16.848;2023-04-01T00:51:09;4.40;;;2.42;;
21424;SDS011;10873;51.132;16.848;2023-04-01T00:53:40;3.53;;;2.28;;
21424;SDS011;10873;51.132;16.848;2023-04-01T00:56:10;5.93;;;2.58;;
21424;SDS011;10873;51.132;16.848;2023-04-01T00:58:42;4.78;;;2.38;;
21424;SDS011;10873;51.132;16.848;2023-04-01T01:01:13;3.95;;;2.50;;
21424;SDS011;10873;51.132;16.848;2023-04-01T01:03:40;5.70;;;2.60;;
21424;SDS011;10873;51.132;16.848;2023-04-01T01:06:11;4.32;;;2.63;;
21424;SDS011;10873;51.132;16.848;2023-04-01T01:08:54;4.82;;;2.90;;
21424;SDS011;10873;51.132;16.848;2023-04-01T01:11:34;3.30;;;2.55;;
21424;SDS011;10873;51.132;16.848;2023-04-01T01:14:05;3.22;;;2.47;;
21424;SDS011;10873;51.132;16.848;2023-04-01T01:16:43;3.72;;;2.35;;
21424;SDS011;10873;51.132;16.848;2023-04-01T01:19:21;3.83;;;2.35;;
21424;SDS011;10873;51.132;16.848;2023-04-01T01:22:12;4.32;;;2.45;;
21424;SDS011;10873;51.132;16.848;2023-04-01T01:24:53;3.55;;;2.50;;
21424;SDS011;10873;51.132;16.848;2023-04-01T01:27:29;3.78;;;2.50;;
21424;SDS011;10873;51.132;16.848;2023-04-01T01:30:11;4.00;;;2.50;;
21424;SDS011;10873;51.132;16.848;2023-04-01T01:35:43;3.70;;;2.45;;
21424;SDS011;10873;51.132;16.848;2023-04-01T01:38:14;3.90;;;2.58;;
21424;SDS011;10873;51.132;16.848;2023-04-01T01:40:42;2.78;;;2.08;;
21424;SDS011;10873;51.132;16.848;2023-04-01T01:43:11;3.47;;;2.45;;
21424;SDS011;10873;51.132;16.848;2023-04-01T01:45:44;4.32;;;2.35;;
21424;SDS011;10873;51.132;16.848;2023-04-01T01:48:12;2.70;;;2.10;;
21424;SDS011;10873;51.132;16.848;2023-04-01T01:50:40;2.75;;;2.00;;
21424;SDS011;10873;51.132;16.848;2023-04-01T01:53:11;3.53;;;2.30;;
21424;SDS011;10873;51.132;16.848;2023-04-01T01:55:40;2.65;;;2.35;;
21424;SDS011;10873;51.132;16.848;2023-04-01T01:58:08;3.63;;;2.00;;
21424;SDS011;10873;51.132;16.848;2023-04-01T02:00:37;3.15;;;2.28;;
21424;SDS011;10873;51.132;16.848;2023-04-01T02:03:05;3.53;;;2.40;;
21424;SDS011;10873;51.132;16.848;2023-04-01T02:05:32;5.70;;;2.35;;
21424;SDS011;10873;51.132;16.848;2023-04-01T02:08:00;3.72;;;2.25;;
21424;SDS011;10873;51.132;16.848;2023-04-01T02:10:31;4.97;;;2.17;;
21424;SDS011;10873;51.132;16.848;2023-04-01T02:13:01;3.20;;;2.08;;
21424;SDS011;10873;51.132;16.848;2023-04-01T02:15:35;3.35;;;2.08;;
21424;SDS011;10873;51.132;16.848;2023-04-01T02:18:05;3.20;;;2.10;;
21424;SDS011;10873;51.132;16.848;2023-04-01T02:20:32;3.75;;;2.53;;
21424;SDS011;10873;51.132;16.848;2023-04-01T02:23:00;3.00;;;2.00;;
21424;SDS011;10873;51.132;16.848;2023-04-01T02:25:28;4.20;;;2.35;;
21424;SDS011;10873;51.132;16.848;2023-04-01T02:27:59;3.42;;;2.20;;
21424;SDS011;10873;51.132;16.848;2023-04-01T02:30:27;2.97;;;2.30;;
21424;SDS011;10873;51.132;16.848;2023-04-01T02:32:57;3.30;;;2.10;;
21424;SDS011;10873;51.132;16.848;2023-04-01T02:35:24;3.05;;;1.95;;
21424;SDS011;10873;51.132;16.848;2023-04-01T02:37:51;2.95;;;2.08;;
21424;SDS011;10873;51.132;16.848;2023-04-01T02:40:19;2.55;;;1.90;;
21424;SDS011;10873;51.132;16.848;2023-04-01T02:42:46;3.30;;;2.20;;
21424;SDS011;10873;51.132;16.848;2023-04-01T02:45:13;4.50;;;2.10;;
21424;SDS011;10873;51.132;16.848;2023-04-01T02:47:40;3.28;;;2.38;;
21424;SDS011;10873;51.132;16.848;2023-04-01T02:50:07;4.32;;;2.25;;
21424;SDS011;10873;51.132;16.848;2023-04-01T02:52:33;4.85;;;2.10;;
21424;SDS011;10873;51.132;16.848;2023-04-01T02:55:00;4.35;;;2.30;;
21424;SDS011;10873;51.132;16.848;2023-04-01T02:57:26;3.55;;;2.10;;
21424;SDS011;10873;51.132;16.848;2023-04-01T02:59:54;2.88;;;1.73;;
21424;SDS011;10873;51.132;16.848;2023-04-01T03:02:20;3.78;;;1.98;;
21424;SDS011;10873;51.132;16.848;2023-04-01T03:04:46;2.40;;;1.90;;
21424;SDS011;10873;51.132;16.848;2023-04-01T03:07:12;2.78;;;2.00;;
21424;SDS011;10873;51.132;16.848;2023-04-01T03:09:38;2.25;;;1.75;;
21424;SDS011;10873;51.132;16.848;2023-04-01T03:12:05;3.67;;;1.80;;
21424;SDS011;10873;51.132;16.848;2023-04-01T03:14:31;4.45;;;1.60;;
21424;SDS011;10873;51.132;16.848;2023-04-01T03:16:59;2.75;;;1.42;;
21424;SDS011;10873;51.132;16.848;2023-04-01T03:19:26;2.88;;;1.70;;
21424;SDS011;10873;51.132;16.848;2023-04-01T03:21:51;2.88;;;1.55;;
21424;SDS011;10873;51.132;16.848;2023-04-01T03:24:18;1.83;;;1.42;;
21424;SDS011;10873;51.132;16.848;2023-04-01T03:26:45;2.90;;;1.67;;
21424;SDS011;10873;51.132;16.848;2023-04-01T03:29:11;3.05;;;1.58;;
21424;SDS011;10873;51.132;16.848;2023-04-01T03:31:37;2.45;;;1.70;;
21424;SDS011;10873;51.132;16.848;2023-04-01T03:34:04;3.05;;;1.63;;
21424;SDS011;10873;51.132;16.848;2023-04-01T03:36:30;2.95;;;1.50;;
21424;SDS011;10873;51.132;16.848;2023-04-01T03:38:56;2.72;;;1.55;;
21424;SDS011;10873;51.132;16.848;2023-04-01T03:41:22;2.45;;;1.77;;
21424;SDS011;10873;51.132;16.848;2023-04-01T03:43:48;2.67;;;1.50;;
21424;SDS011;10873;51.132;16.848;2023-04-01T03:46:16;2.65;;;1.70;;
21424;SDS011;10873;51.132;16.848;2023-04-01T03:48:43;2.15;;;1.42;;
21424;SDS011;10873;51.132;16.848;2023-04-01T03:51:10;2.88;;;1.90;;
21424;SDS011;10873;51.132;16.848;2023-04-01T03:53:36;2.25;;;1.45;;
21424;SDS011;10873;51.132;16.848;2023-04-01T03:56:03;4.15;;;1.77;;
21424;SDS011;10873;51.132;16.848;2023-04-01T03:58:30;2.15;;;1.33;;
21424;SDS011;10873;51.132;16.848;2023-04-01T04:00:56;3.33;;;1.50;;
21424;SDS011;10873;51.132;16.848;2023-04-01T04:03:22;2.80;;;1.52;;
21424;SDS011;10873;51.132;16.848;2023-04-01T04:05:48;1.85;;;1.30;;
21424;SDS011;10873;51.132;16.848;2023-04-01T04:08:16;1.83;;;1.10;;
21424;SDS011;10873;51.132;16.848;2023-04-01T04:10:42;2.08;;;1.50;;
21424;SDS011;10873;51.132;16.848;2023-04-01T04:13:09;2.03;;;1.50;;
21424;SDS011;10873;51.132;16.848;2023-04-01T04:15:35;2.40;;;1.38;;
21424;SDS011;10873;51.132;16.848;2023-04-01T04:18:01;1.85;;;1.13;;
21424;SDS011;10873;51.132;16.848;2023-04-01T04:20:27;2.92;;;1.48;;
21424;SDS011;10873;51.132;16.848;2023-04-01T04:22:53;2.42;;;1.25;;
21424;SDS011;10873;51.132;16.848;2023-04-01T04:25:20;3.03;;;1.50;;
21424;SDS011;10873;51.132;16.848;2023-04-01T04:27:46;2.30;;;1.50;;
21424;SDS011;10873;51.132;16.848;2023-04-01T04:30:13;1.50;;;1.35;;
21424;SDS011;10873;51.132;16.848;2023-04-01T04:32:39;3.33;;;1.48;;
21424;SDS011;10873;51.132;16.848;2023-04-01T04:35:06;3.83;;;1.27;;
21424;SDS011;10873;51.132;16.848;2023-04-01T04:37:33;5.65;;;1.40;;
21424;SDS011;10873;51.132;16.848;2023-04-01T04:39:59;2.80;;;1.33;;
21424;SDS011;10873;51.132;16.848;2023-04-01T04:42:27;2.88;;;1.20;;
21424;SDS011;10873;51.132;16.848;2023-04-01T04:44:53;2.55;;;1.13;;
21424;SDS011;10873;51.132;16.848;2023-04-01T04:47:19;2.35;;;1.27;;
21424;SDS011;10873;51.132;16.848;2023-04-01T04:49:45;1.70;;;1.20;;
21424;SDS011;10873;51.132;16.848;2023-04-01T04:52:11;2.10;;;1.40;;
21424;SDS011;10873;51.132;16.848;2023-04-01T04:54:37;2.75;;;1.50;;
21424;SDS011;10873;51.132;16.848;2023-04-01T04:57:03;2.22;;;1.20;;
21424;SDS011;10873;51.132;16.848;2023-04-01T04:59:31;3.80;;;1.30;;
21424;SDS011;10873;51.132;16.848;2023-04-01T05:01:57;2.03;;;1.25;;
21424;SDS011;10873;51.132;16.848;2023-04-01T05:04:23;3.15;;;1.35;;
21424;SDS011;10873;51.132;16.848;2023-04-01T05:06:49;2.50;;;1.20;;
21424;SDS011;10873;51.132;16.848;2023-04-01T05:09:17;2.45;;;1.33;;
21424;SDS011;10873;51.132;16.848;2023-04-01T05:11:43;1.65;;;1.33;;
21424;SDS011;10873;51.132;16.848;2023-04-01T05:14:11;2.20;;;1.30;;
21424;SDS011;10873;51.132;16.848;2023-04-01T05:16:40;1.90;;;1.13;;
21424;SDS011;10873;51.132;16.848;2023-04-01T05:19:06;4.35;;;1.50;;
21424;SDS011;10873;51.132;16.848;2023-04-01T05:21:32;13.85;;;1.80;;
21424;SDS011;10873;51.132;16.848;2023-04-01T05:23:58;5.97;;;1.40;;
21424;SDS011;10873;51.132;16.848;2023-04-01T05:26:24;17.63;;;1.90;;
21424;SDS011;10873;51.132;16.848;2023-04-01T05:28:50;4.07;;;1.80;;
21424;SDS011;10873;51.132;16.848;2023-04-01T05:31:17;6.90;;;1.98;;
21424;SDS011;10873;51.132;16.848;2023-04-01T05:33:44;6.72;;;1.63;;
21424;SDS011;10873;51.132;16.848;2023-04-01T05:36:11;8.25;;;1.90;;
21424;SDS011;10873;51.132;16.848;2023-04-01T05:38:38;4.10;;;1.70;;
21424;SDS011;10873;51.132;16.848;2023-04-01T05:41:05;4.72;;;1.55;;
21424;SDS011;10873;51.132;16.848;2023-04-01T05:43:31;7.72;;;1.92;;
21424;SDS011;10873;51.132;16.848;2023-04-01T05:46:00;5.85;;;2.10;;
21424;SDS011;10873;51.132;16.848;2023-04-01T05:48:26;8.57;;;1.63;;
21424;SDS011;10873;51.132;16.848;2023-04-01T05:50:54;5.32;;;1.55;;
21424;SDS011;10873;51.132;16.848;2023-04-01T05:53:20;6.75;;;1.58;;
21424;SDS011;10873;51.132;16.848;2023-04-01T05:55:46;3.80;;;1.70;;
21424;SDS011;10873;51.132;16.848;2023-04-01T05:58:12;4.22;;;1.90;;
21424;SDS011;10873;51.132;16.848;2023-04-01T06:00:38;2.80;;;1.42;;
21424;SDS011;10873;51.132;16.848;2023-04-01T06:03:04;2.83;;;1.60;;
21424;SDS011;10873;51.132;16.848;2023-04-01T06:05:35;4.65;;;1.73;;
21424;SDS011;10873;51.132;16.848;2023-04-01T06:08:09;6.30;;;1.70;;
21424;SDS011;10873;51.132;16.848;2023-04-01T06:10:39;6.85;;;1.60;;
21424;SDS011;10873;51.132;16.848;2023-04-01T06:13:30;5.95;;;1.75;;
21424;SDS011;10873;51.132;16.848;2023-04-01T06:16:09;10.70;;;1.75;;
21424;SDS011;10873;51.132;16.848;2023-04-01T06:18:59;2.75;;;1.33;;
21424;SDS011;10873;51.132;16.848;2023-04-01T06:21:35;8.40;;;1.55;;
21424;SDS011;10873;51.132;16.848;2023-04-01T06:24:22;10.48;;;1.60;;
21424;SDS011;10873;51.132;16.848;2023-04-01T06:27:09;7.03;;;1.58;;
21424;SDS011;10873;51.132;16.848;2023-04-01T06:29:49;2.53;;;1.30;;
21424;SDS011;10873;51.132;16.848;2023-04-01T06:32:39;2.05;;;1.38;;
21424;SDS011;10873;51.132;16.848;2023-04-01T06:35:17;11.95;;;1.65;;
21424;SDS011;10873;51.132;16.848;2023-04-01T06:38:01;10.95;;;1.70;;
21424;SDS011;10873;51.132;16.848;2023-04-01T06:40:47;10.13;;;1.77;;
21424;SDS011;10873;51.132;16.848;2023-04-01T06:43:28;6.03;;;1.40;;
21424;SDS011;10873;51.132;16.848;2023-04-01T06:46:06;3.22;;;1.30;;
21424;SDS011;10873;51.132;16.848;2023-04-01T06:48:47;5.20;;;1.25;;
21424;SDS011;10873;51.132;16.848;2023-04-01T06:51:31;6.70;;;1.55;;
21424;SDS011;10873;51.132;16.848;2023-04-01T06:54:07;6.72;;;1.30;;
21424;SDS011;10873;51.132;16.848;2023-04-01T06:56:38;2.00;;;1.13;;
21424;SDS011;10873;51.132;16.848;2023-04-01T06:59:09;3.63;;;1.30;;
21424;SDS011;10873;51.132;16.848;2023-04-01T07:01:38;3.53;;;0.98;;
21424;SDS011;10873;51.132;16.848;2023-04-01T07:04:09;2.03;;;1.30;;
21424;SDS011;10873;51.132;16.848;2023-04-01T07:06:39;2.17;;;1.45;;
21424;SDS011;10873;51.132;16.848;2023-04-01T07:09:10;4.53;;;1.30;;
21424;SDS011;10873;51.132;16.848;2023-04-01T07:11:41;2.95;;;1.40;;
21424;SDS011;10873;51.132;16.848;2023-04-01T07:14:10;5.68;;;1.73;;
21424;SDS011;10873;51.132;16.848;2023-04-01T07:16:43;4.35;;;1.52;;
21424;SDS011;10873;51.132;16.848;2023-04-01T07:19:16;2.20;;;1.40;;
21424;SDS011;10873;51.132;16.848;2023-04-01T07:21:47;3.00;;;1.23;;
21424;SDS011;10873;51.132;16.848;2023-04-01T07:24:19;4.90;;;1.50;;
21424;SDS011;10873;51.132;16.848;2023-04-01T07:26:52;4.68;;;1.50;;
21424;SDS011;10873;51.132;16.848;2023-04-01T07:29:20;2.90;;;1.27;;
21424;SDS011;10873;51.132;16.848;2023-04-01T07:31:50;3.28;;;1.40;;
21424;SDS011;10873;51.132;16.848;2023-04-01T07:34:35;2.85;;;2.10;;
21424;SDS011;10873;51.132;16.848;2023-04-01T07:37:14;14.32;;;3.08;;
21424;SDS011;10873;51.132;16.848;2023-04-01T07:39:44;7.65;;;2.72;;
21424;SDS011;10873;51.132;16.848;2023-04-01T07:42:20;10.32;;;2.95;;
21424;SDS011;10873;51.132;16.848;2023-04-01T07:44:59;12.48;;;2.65;;
21424;SDS011;10873;51.132;16.848;2023-04-01T07:47:39;5.43;;;2.00;;
21424;SDS011;10873;51.132;16.848;2023-04-01T07:50:18;5.95;;;2.63;;
21424;SDS011;10873;51.132;16.848;2023-04-01T07:52:52;11.00;;;2.97;;
21424;SDS011;10873;51.132;16.848;2023-04-01T07:55:28;6.40;;;2.90;;
21424;SDS011;10873;51.132;16.848;2023-04-01T07:58:04;10.23;;;2.70;;
21424;SDS011;10873;51.132;16.848;2023-04-01T08:00:39;5.95;;;2.60;;
21424;SDS011;10873;51.132;16.848;2023-04-01T08:03:21;5.57;;;2.10;;
21424;SDS011;10873;51.132;16.848;2023-04-01T08:06:08;7.43;;;2.40;;
21424;SDS011;10873;51.132;16.848;2023-04-01T08:08:43;7.07;;;3.28;;
21424;SDS011;10873;51.132;16.848;2023-04-01T08:11:22;13.77;;;5.10;;
21424;SDS011;10873;51.132;16.848;2023-04-01T08:14:01;10.30;;;5.78;;
21424;SDS011;10873;51.132;16.848;2023-04-01T08:16:35;9.88;;;5.90;;
21424;SDS011;10873;51.132;16.848;2023-04-01T08:19:09;10.57;;;5.75;;
21424;SDS011;10873;51.132;16.848;2023-04-01T08:21:47;12.18;;;5.10;;
21424;SDS011;10873;51.132;16.848;2023-04-01T08:24:17;7.43;;;4.40;;
21424;SDS011;10873;51.132;16.848;2023-04-01T08:26:51;6.70;;;3.80;;
21424;SDS011;10873;51.132;16.848;2023-04-01T08:29:23;6.32;;;3.58;;
21424;SDS011;10873;51.132;16.848;2023-04-01T08:32:03;7.72;;;3.38;;
21424;SDS011;10873;51.132;16.848;2023-04-01T08:34:34;6.18;;;3.33;;
21424;SDS011;10873;51.132;16.848;2023-04-01T08:37:04;6.88;;;3.20;;
21424;SDS011;10873;51.132;16.848;2023-04-01T08:39:32;9.15;;;2.85;;
21424;SDS011;10873;51.132;16.848;2023-04-01T08:50:56;4.85;;;2.05;;
21424;SDS011;10873;51.132;16.848;2023-04-01T08:53:48;3.90;;;1.90;;
21424;SDS011;10873;51.132;16.848;2023-04-01T08:56:30;4.50;;;2.00;;
21424;SDS011;10873;51.132;16.848;2023-04-01T09:02:22;5.18;;;1.88;;
21424;SDS011;10873;51.132;16.848;2023-04-01T09:05:18;3.70;;;2.00;;
21424;SDS011;10873;51.132;16.848;2023-04-01T09:08:16;3.00;;;1.70;;
21424;SDS011;10873;51.132;16.848;2023-04-01T09:11:11;3.25;;;1.75;;
21424;SDS011;10873;51.132;16.848;2023-04-01T09:16:59;2.45;;;1.40;;
21424;SDS011;10873;51.132;16.848;2023-04-01T09:19:54;3.65;;;1.38;;
21424;SDS011;10873;51.132;16.848;2023-04-01T09:22:39;4.38;;;1.40;;
21424;SDS011;10873;51.132;16.848;2023-04-01T09:28:14;3.05;;;1.35;;
21424;SDS011;10873;51.132;16.848;2023-04-01T09:30:48;4.30;;;1.60;;
21424;SDS011;10873;51.132;16.848;2023-04-01T09:33:41;7.07;;;1.52;;
21424;SDS011;10873;51.132;16.848;2023-04-01T09:36:28;4.82;;;1.60;;
21424;SDS011;10873;51.132;16.848;2023-04-01T09:39:13;4.63;;;1.58;;
21424;SDS011;10873;51.132;16.848;2023-04-01T09:41:51;3.53;;;1.60;;
21424;SDS011;10873;51.132;16.848;2023-04-01T09:44:41;4.55;;;1.55;;
21424;SDS011;10873;51.132;16.848;2023-04-01T09:47:16;5.32;;;1.23;;
21424;SDS011;10873;51.132;16.848;2023-04-01T09:49:55;6.78;;;1.50;;
21424;SDS011;10873;51.132;16.848;2023-04-01T09:52:42;5.65;;;1.52;;
21424;SDS011;10873;51.132;16.848;2023-04-01T09:55:19;2.95;;;1.05;;
21424;SDS011;10873;51.132;16.848;2023-04-01T09:58:11;5.60;;;1.40;;
21424;SDS011;10873;51.132;16.848;2023-04-01T10:07:28;6.72;;;1.30;;
21424;SDS011;10873;51.132;16.848;2023-04-01T10:10:37;3.85;;;1.10;;
21424;SDS011;10873;51.132;16.848;2023-04-01T10:13:17;4.47;;;1.20;;
21424;SDS011;10873;51.132;16.848;2023-04-01T10:16:16;4.10;;;1.20;;
21424;SDS011;10873;51.132;16.848;2023-04-01T10:19:15;4.40;;;1.50;;
21424;SDS011;10873;51.132;16.848;2023-04-01T10:22:11;5.75;;;1.55;;
21424;SDS011;10873;51.132;16.848;2023-04-01T10:27:48;3.13;;;1.52;;
21424;SDS011;10873;51.132;16.848;2023-04-01T10:36:41;9.02;;;1.60;;
21424;SDS011;10873;51.132;16.848;2023-04-01T10:42:22;2.75;;;1.30;;
21424;SDS011;10873;51.132;16.848;2023-04-01T10:48:23;4.63;;;1.30;;
21424;SDS011;10873;51.132;16.848;2023-04-01T10:51:12;4.03;;;1.52;;
21424;SDS011;10873;51.132;16.848;2023-04-01T10:53:49;7.55;;;1.38;;
21424;SDS011;10873;51.132;16.848;2023-04-01T10:56:42;2.50;;;1.30;;
21424;SDS011;10873;51.132;16.848;2023-04-01T10:59:37;4.30;;;1.55;;
21424;SDS011;10873;51.132;16.848;2023-04-01T11:08:49;8.75;;;1.40;;
21424;SDS011;10873;51.132;16.848;2023-04-01T11:15:20;6.20;;;1.52;;
21424;SDS011;10873;51.132;16.848;2023-04-01T11:18:07;7.82;;;1.10;;
21424;SDS011;10873;51.132;16.848;2023-04-01T11:20:59;7.47;;;1.50;;
21424;SDS011;10873;51.132;16.848;2023-04-01T11:23:50;3.40;;;1.40;;
21424;SDS011;10873;51.132;16.848;2023-04-01T11:26:31;7.97;;;1.58;;
21424;SDS011;10873;51.132;16.848;2023-04-01T11:29:09;5.10;;;1.35;;
21424;SDS011;10873;51.132;16.848;2023-04-01T11:31:55;3.67;;;1.10;;
21424;SDS011;10873;51.132;16.848;2023-04-01T11:34:48;3.30;;;1.10;;
21424;SDS011;10873;51.132;16.848;2023-04-01T11:37:29;7.97;;;1.25;;
21424;SDS011;10873;51.132;16.848;2023-04-01T11:42:35;2.47;;;1.35;;
21424;SDS011;10873;51.132;16.848;2023-04-01T11:45:15;3.45;;;1.50;;
21424;SDS011;10873;51.132;16.848;2023-04-01T11:48:16;1.60;;;1.10;;
21424;SDS011;10873;51.132;16.848;2023-04-01T11:50:57;5.45;;;1.13;;
21424;SDS011;10873;51.132;16.848;2023-04-01T11:53:44;1.23;;;0.95;;
21424;SDS011;10873;51.132;16.848;2023-04-01T11:56:24;8.80;;;1.05;;
21424;SDS011;10873;51.132;16.848;2023-04-01T11:59:38;6.07;;;0.90;;
21424;SDS011;10873;51.132;16.848;2023-04-01T12:02:16;4.75;;;1.05;;
21424;SDS011;10873;51.132;16.848;2023-04-01T12:04:55;4.65;;;0.98;;
21424;SDS011;10873;51.132;16.848;2023-04-01T12:10:17;3.80;;;0.80;;
21424;SDS011;10873;51.132;16.848;2023-04-01T12:12:49;9.55;;;1.00;;
21424;SDS011;10873;51.132;16.848;2023-04-01T12:15:27;6.15;;;1.20;;
21424;SDS011;10873;51.132;16.848;2023-04-01T12:18:02;4.97;;;1.13;;
21424;SDS011;10873;51.132;16.848;2023-04-01T12:20:43;2.13;;;1.20;;
21424;SDS011;10873;51.132;16.848;2023-04-01T12:23:22;3.08;;;1.25;;
21424;SDS011;10873;51.132;16.848;2023-04-01T12:29:02;3.13;;;1.23;;
21424;SDS011;10873;51.132;16.848;2023-04-01T12:31:39;4.65;;;1.20;;
21424;SDS011;10873;51.132;16.848;2023-04-01T12:34:21;2.05;;;1.30;;
21424;SDS011;10873;51.132;16.848;2023-04-01T12:37:02;2.55;;;1.45;;
21424;SDS011;10873;51.132;16.848;2023-04-01T12:39:42;6.28;;;2.78;;
21424;SDS011;10873;51.132;16.848;2023-04-01T12:42:32;9.63;;;3.40;;
21424;SDS011;10873;51.132;16.848;2023-04-01T12:45:23;7.05;;;2.30;;
21424;SDS011;10873;51.132;16.848;2023-04-01T12:47:59;4.57;;;1.58;;
21424;SDS011;10873;51.132;16.848;2023-04-01T12:50:54;4.50;;;1.58;;
21424;SDS011;10873;51.132;16.848;2023-04-01T12:53:49;3.05;;;1.50;;
21424;SDS011;10873;51.132;16.848;2023-04-01T12:56:37;2.28;;;1.23;;
21424;SDS011;10873;51.132;16.848;2023-04-01T12:59:18;5.25;;;1.73;;
21424;SDS011;10873;51.132;16.848;2023-04-01T13:02:07;3.05;;;1.27;;
21424;SDS011;10873;51.132;16.848;2023-04-01T13:07:57;3.25;;;1.77;;
21424;SDS011;10873;51.132;16.848;2023-04-01T13:10:35;3.78;;;1.52;;
21424;SDS011;10873;51.132;16.848;2023-04-01T13:13:20;3.10;;;1.35;;
21424;SDS011;10873;51.132;16.848;2023-04-01T13:16:05;3.47;;;1.63;;
21424;SDS011;10873;51.132;16.848;2023-04-01T13:18:38;2.50;;;1.17;;
21424;SDS011;10873;51.132;16.848;2023-04-01T13:21:12;4.68;;;1.60;;
21424;SDS011;10873;51.132;16.848;2023-04-01T13:23:48;4.82;;;1.75;;
21424;SDS011;10873;51.132;16.848;2023-04-01T13:26:24;3.92;;;1.48;;
21424;SDS011;10873;51.132;16.848;2023-04-01T13:28:58;3.75;;;1.73;;
21424;SDS011;10873;51.132;16.848;2023-04-01T13:31:32;2.65;;;1.50;;
21424;SDS011;10873;51.132;16.848;2023-04-01T13:34:21;3.67;;;1.13;;
21424;SDS011;10873;51.132;16.848;2023-04-01T13:36:59;2.15;;;1.20;;
21424;SDS011;10873;51.132;16.848;2023-04-01T13:39:36;2.05;;;1.15;;
21424;SDS011;10873;51.132;16.848;2023-04-01T13:42:21;2.63;;;1.10;;
21424;SDS011;10873;51.132;16.848;2023-04-01T13:44:51;4.25;;;1.10;;
21424;SDS011;10873;51.132;16.848;2023-04-01T13:47:23;5.28;;;1.20;;
21424;SDS011;10873;51.132;16.848;2023-04-01T13:50:16;4.00;;;0.98;;
21424;SDS011;10873;51.132;16.848;2023-04-01T13:53:11;3.15;;;1.20;;
21424;SDS011;10873;51.132;16.848;2023-04-01T13:56:08;1.38;;;0.80;;
21424;SDS011;10873;51.132;16.848;2023-04-01T13:58:51;6.07;;;1.20;;
21424;SDS011;10873;51.132;16.848;2023-04-01T14:01:31;5.63;;;1.30;;
21424;SDS011;10873;51.132;16.848;2023-04-01T14:04:03;1.85;;;0.95;;
21424;SDS011;10873;51.132;16.848;2023-04-01T14:06:48;1.83;;;1.00;;
21424;SDS011;10873;51.132;16.848;2023-04-01T14:12:12;1.55;;;1.00;;
21424;SDS011;10873;51.132;16.848;2023-04-01T14:14:54;2.88;;;1.05;;
21424;SDS011;10873;51.132;16.848;2023-04-01T14:17:53;4.18;;;1.02;;
21424;SDS011;10873;51.132;16.848;2023-04-01T14:20:36;1.83;;;1.20;;
21424;SDS011;10873;51.132;16.848;2023-04-01T14:23:13;2.00;;;1.15;;
21424;SDS011;10873;51.132;16.848;2023-04-01T14:25:55;2.70;;;1.20;;
21424;SDS011;10873;51.132;16.848;2023-04-01T14:28:36;1.98;;;1.23;;
21424;SDS011;10873;51.132;16.848;2023-04-01T14:31:23;2.40;;;1.10;;
21424;SDS011;10873;51.132;16.848;2023-04-01T14:34:03;3.67;;;1.10;;
21424;SDS011;10873;51.132;16.848;2023-04-01T14:36:39;2.72;;;1.20;;
21424;SDS011;10873;51.132;16.848;2023-04-01T14:39:18;1.85;;;1.05;;
21424;SDS011;10873;51.132;16.848;2023-04-01T14:42:18;5.30;;;1.15;;
21424;SDS011;10873;51.132;16.848;2023-04-01T14:45:05;2.70;;;1.15;;
21424;SDS011;10873;51.132;16.848;2023-04-01T14:47:51;1.98;;;1.23;;
21424;SDS011;10873;51.132;16.848;2023-04-01T14:50:20;2.35;;;1.00;;
21424;SDS011;10873;51.132;16.848;2023-04-01T14:52:52;1.05;;;0.82;;
21424;SDS011;10873;51.132;16.848;2023-04-01T14:55:30;2.55;;;1.30;;
21424;SDS011;10873;51.132;16.848;2023-04-01T14:57:59;2.55;;;1.25;;
21424;SDS011;10873;51.132;16.848;2023-04-01T15:00:39;2.90;;;1.50;;
21424;SDS011;10873;51.132;16.848;2023-04-01T15:03:16;2.88;;;1.50;;
21424;SDS011;10873;51.132;16.848;2023-04-01T15:05:49;2.88;;;1.80;;
21424;SDS011;10873;51.132;16.848;2023-04-01T15:08:21;2.30;;;1.58;;
21424;SDS011;10873;51.132;16.848;2023-04-01T15:10:53;3.58;;;1.73;;
21424;SDS011;10873;51.132;16.848;2023-04-01T15:13:45;4.78;;;2.58;;
21424;SDS011;10873;51.132;16.848;2023-04-01T15:16:31;5.93;;;3.47;;
21424;SDS011;10873;51.132;16.848;2023-04-01T15:19:09;9.43;;;3.33;;
21424;SDS011;10873;51.132;16.848;2023-04-01T15:21:50;3.83;;;2.58;;
21424;SDS011;10873;51.132;16.848;2023-04-01T15:24:34;4.70;;;2.00;;
21424;SDS011;10873;51.132;16.848;2023-04-01T15:27:12;3.75;;;2.08;;
21424;SDS011;10873;51.132;16.848;2023-04-01T15:29:50;3.90;;;2.00;;
21424;SDS011;10873;51.132;16.848;2023-04-01T15:32:46;4.15;;;1.70;;
21424;SDS011;10873;51.132;16.848;2023-04-01T15:35:29;4.78;;;1.80;;
21424;SDS011;10873;51.132;16.848;2023-04-01T15:38:05;3.00;;;1.67;;
21424;SDS011;10873;51.132;16.848;2023-04-01T15:40:37;2.10;;;1.55;;
21424;SDS011;10873;51.132;16.848;2023-04-01T15:43:13;2.00;;;1.23;;
21424;SDS011;10873;51.132;16.848;2023-04-01T15:45:49;2.28;;;1.55;;
21424;SDS011;10873;51.132;16.848;2023-04-01T15:48:33;6.93;;;1.77;;
21424;SDS011;10873;51.132;16.848;2023-04-01T15:51:23;3.05;;;1.73;;
21424;SDS011;10873;51.132;16.848;2023-04-01T15:57:20;2.25;;;1.58;;
21424;SDS011;10873;51.132;16.848;2023-04-01T15:59:54;3.47;;;1.70;;
21424;SDS011;10873;51.132;16.848;2023-04-01T16:02:31;2.20;;;1.73;;
21424;SDS011;10873;51.132;16.848;2023-04-01T16:05:03;4.97;;;3.25;;
21424;SDS011;10873;51.132;16.848;2023-04-01T16:07:42;12.52;;;7.82;;
21424;SDS011;10873;51.132;16.848;2023-04-01T16:10:23;17.15;;;8.20;;
21424;SDS011;10873;51.132;16.848;2023-04-01T16:13:17;12.82;;;7.95;;
21424;SDS011;10873;51.132;16.848;2023-04-01T16:15:56;13.70;;;8.77;;
21424;SDS011;10873;51.132;16.848;2023-04-01T16:21:33;8.13;;;6.38;;
21424;SDS011;10873;51.132;16.848;2023-04-01T16:24:04;10.77;;;7.03;;
21424;SDS011;10873;51.132;16.848;2023-04-01T16:26:39;7.95;;;6.43;;
21424;SDS011;10873;51.132;16.848;2023-04-01T16:29:16;8.43;;;6.43;;
21424;SDS011;10873;51.132;16.848;2023-04-01T16:31:51;11.40;;;7.50;;
21424;SDS011;10873;51.132;16.848;2023-04-01T16:34:21;15.55;;;7.85;;
21424;SDS011;10873;51.132;16.848;2023-04-01T16:36:54;10.70;;;8.23;;